createdAt,value
2018-11-05T00:00:40.826Z,8.30
2018-11-05T00:03:09.830Z,8.40
2018-11-05T00:05:38.529Z,9.20
2018-11-05T00:08:07.327Z,9.13
2018-11-05T00:10:36.014Z,8.47
2018-11-05T00:13:04.754Z,9.00
2018-11-05T00:15:33.558Z,8.00
2018-11-05T00:18:02.246Z,8.40
2018-11-05T00:20:30.968Z,8.40
2018-11-05T00:22:59.688Z,7.93
2018-11-05T00:25:28.372Z,8.07
2018-11-05T00:27:57.097Z,8.47
2018-11-05T00:30:25.773Z,8.80
2018-11-05T00:32:54.510Z,9.10
2018-11-05T00:35:23.286Z,8.70
2018-11-05T00:37:52.010Z,8.77
2018-11-05T00:40:20.726Z,8.43
2018-11-05T00:42:49.437Z,9.33
2018-11-05T00:45:18.206Z,9.60
2018-11-05T00:47:46.879Z,9.07
2018-11-05T00:50:16.503Z,8.90
2018-11-05T00:52:45.191Z,8.97
2018-11-05T00:55:14.217Z,8.97
2018-11-05T00:57:42.946Z,8.97
2018-11-05T01:00:16.273Z,8.27
2018-11-05T01:02:45.028Z,8.83
2018-11-05T01:05:14.942Z,7.47
2018-11-05T01:07:44.696Z,8.10
2018-11-05T01:10:14.679Z,9.13
2018-11-05T01:12:43.478Z,10.43
2018-11-05T01:15:15.534Z,10.23
2018-11-05T01:17:44.245Z,10.07
2018-11-05T01:20:14.125Z,9.73
2018-11-05T01:22:42.834Z,9.50
2018-11-05T01:25:11.696Z,10.30
2018-11-05T01:27:40.438Z,9.73
2018-11-05T01:30:12.538Z,9.07
2018-11-05T01:32:41.357Z,8.10
2018-11-05T01:35:11.873Z,9.00
2018-11-05T01:37:40.617Z,10.20
2018-11-05T01:40:11.725Z,9.67
2018-11-05T01:42:40.454Z,9.80
2018-11-05T01:45:10.643Z,10.80
2018-11-05T01:47:39.458Z,10.77
2018-11-05T01:50:09.807Z,11.10
2018-11-05T01:52:38.587Z,11.13
2018-11-05T01:55:08.023Z,10.30
2018-11-05T01:57:36.714Z,10.37
2018-11-05T02:00:08.114Z,10.57
2018-11-05T02:02:36.863Z,11.13
2018-11-05T02:05:06.097Z,10.47
2018-11-05T02:07:34.814Z,13.20
2018-11-05T02:10:04.180Z,11.17
2018-11-05T02:12:32.918Z,11.50
2018-11-05T02:15:01.681Z,11.23
2018-11-05T02:17:30.406Z,11.57
2018-11-05T02:19:59.127Z,11.63
2018-11-05T02:22:27.866Z,11.33
2018-11-05T02:24:56.605Z,11.73
2018-11-05T02:27:25.406Z,12.17
2018-11-05T02:29:54.053Z,11.70
2018-11-05T02:32:22.763Z,11.67
2018-11-05T02:34:51.520Z,10.83
2018-11-05T02:37:20.252Z,11.03
2018-11-05T02:39:48.946Z,11.37
2018-11-05T02:42:17.690Z,11.47
2018-11-05T02:44:46.379Z,13.77
2018-11-05T02:47:15.076Z,15.43
2018-11-05T02:49:43.802Z,14.70
2018-11-05T02:52:12.486Z,12.60
2018-11-05T02:54:41.250Z,11.73
2018-11-05T02:57:09.974Z,13.23
2018-11-05T02:59:38.693Z,14.07
2018-11-05T03:02:07.450Z,13.90
2018-11-05T03:04:36.141Z,14.47
2018-11-05T03:07:04.924Z,15.57
2018-11-05T03:09:33.606Z,14.83
2018-11-05T03:12:02.334Z,14.70
2018-11-05T03:14:31.081Z,15.03
2018-11-05T03:16:59.770Z,16.27
2018-11-05T03:19:28.485Z,14.83
2018-11-05T03:21:57.264Z,15.00
2018-11-05T03:24:26.025Z,14.13
2018-11-05T03:26:54.779Z,14.50
2018-11-05T03:29:23.509Z,13.70
2018-11-05T03:31:52.250Z,15.63
2018-11-05T03:34:20.982Z,15.73
2018-11-05T03:36:49.772Z,16.00
2018-11-05T03:39:18.502Z,19.07
2018-11-05T03:41:47.186Z,17.60
2018-11-05T03:44:15.905Z,17.43
2018-11-05T03:46:44.617Z,17.77
2018-11-05T03:49:13.338Z,16.23
2018-11-05T03:51:42.032Z,17.97
2018-11-05T03:54:10.764Z,17.33
2018-11-05T03:56:39.577Z,17.23
2018-11-05T03:59:08.264Z,17.53
2018-11-05T04:01:37.010Z,17.03
2018-11-05T04:04:05.947Z,20.60
2018-11-05T04:06:34.682Z,19.23
2018-11-05T04:09:05.157Z,19.87
2018-11-05T04:11:33.891Z,20.10
2018-11-05T04:14:02.571Z,20.03
2018-11-05T04:16:31.311Z,19.30
2018-11-05T04:19:00.055Z,19.93
2018-11-05T04:21:35.118Z,19.90
2018-11-05T04:24:03.822Z,21.80
2018-11-05T04:26:32.568Z,20.77
2018-11-05T04:29:01.370Z,19.73
2018-11-05T04:31:30.186Z,19.90
2018-11-05T04:33:58.948Z,19.03
2018-11-05T04:36:27.710Z,20.77
2018-11-05T04:38:56.444Z,19.63
2018-11-05T04:41:25.130Z,21.10
2018-11-05T04:43:53.883Z,23.00
2018-11-05T04:46:22.625Z,20.70
2018-11-05T04:48:51.318Z,21.30
2018-11-05T04:51:20.068Z,19.20
2018-11-05T04:53:48.798Z,19.70
2018-11-05T04:56:17.486Z,19.33
2018-11-05T04:58:46.228Z,18.57
2018-11-05T05:01:14.935Z,18.83
2018-11-05T05:03:43.666Z,17.23
2018-11-05T05:06:12.364Z,18.90
2018-11-05T05:08:41.143Z,21.27
2018-11-05T05:11:09.827Z,18.60
2018-11-05T05:13:38.562Z,18.00
2018-11-05T05:16:07.304Z,19.63
2018-11-05T05:18:36.026Z,19.47
2018-11-05T05:21:05.049Z,21.10
2018-11-05T05:23:33.776Z,21.03
2018-11-05T05:26:02.755Z,22.47
2018-11-05T05:28:31.522Z,21.10
2018-11-05T05:31:00.264Z,21.63
2018-11-05T05:33:28.984Z,19.17
2018-11-05T05:35:57.768Z,20.03
2018-11-05T05:38:26.677Z,20.67
2018-11-05T05:40:55.533Z,20.77
2018-11-05T05:43:24.186Z,19.83
2018-11-05T05:45:52.891Z,22.70
2018-11-05T05:48:21.641Z,20.13
2018-11-05T05:50:50.421Z,22.73
2018-11-05T05:53:19.166Z,22.73
2018-11-05T05:55:47.928Z,21.80
2018-11-05T05:58:16.694Z,21.80
2018-11-05T06:00:45.414Z,24.67
2018-11-05T06:03:14.152Z,22.27
2018-11-05T06:05:42.863Z,22.77
2018-11-05T06:08:11.590Z,23.40
2018-11-05T06:10:40.314Z,22.60
2018-11-05T06:13:09.058Z,22.10
2018-11-05T06:15:37.802Z,20.60
2018-11-05T06:18:06.533Z,21.57
2018-11-05T06:20:35.270Z,23.30
2018-11-05T06:23:04.019Z,21.43
2018-11-05T06:25:32.740Z,20.23
2018-11-05T06:28:01.501Z,21.83
2018-11-05T06:30:30.245Z,22.80
2018-11-05T06:32:58.994Z,24.30
2018-11-05T06:35:27.797Z,23.57
2018-11-05T06:37:56.542Z,26.77
2018-11-05T06:40:25.251Z,26.80
2018-11-05T06:42:54.003Z,24.97
2018-11-05T06:45:23.061Z,23.30
2018-11-05T06:47:52.079Z,26.23
2018-11-05T06:50:22.494Z,25.80
2018-11-05T06:52:51.346Z,27.03
2018-11-05T06:55:20.096Z,27.40
2018-11-05T06:57:48.850Z,26.50
2018-11-05T07:00:25.711Z,25.63
2018-11-05T07:02:54.439Z,25.13
2018-11-05T07:05:23.149Z,25.37
2018-11-05T07:07:51.921Z,26.47
2018-11-05T07:10:20.693Z,23.23
2018-11-05T07:12:49.418Z,24.00
2018-11-05T07:15:19.100Z,25.17
2018-11-05T07:17:49.299Z,24.60
2018-11-05T07:20:19.387Z,24.73
2018-11-05T07:22:49.242Z,25.53
2018-11-05T07:25:18.045Z,26.60
2018-11-05T07:27:46.829Z,29.20
2018-11-05T07:30:18.289Z,24.73
2018-11-05T07:32:47.807Z,24.87
2018-11-05T07:35:16.702Z,26.03
2018-11-05T07:37:45.431Z,25.23
2018-11-05T07:40:15.438Z,25.73
2018-11-05T07:42:44.185Z,24.67
2018-11-05T07:45:15.884Z,25.03
2018-11-05T07:47:45.425Z,24.73
2018-11-05T07:50:15.179Z,24.43
2018-11-05T07:52:43.953Z,24.60
2018-11-05T07:55:13.963Z,24.00
2018-11-05T07:57:43.726Z,23.63
2018-11-05T08:00:19.292Z,22.20
2018-11-05T08:02:49.111Z,22.50
2018-11-05T08:05:19.013Z,21.80
2018-11-05T08:07:48.186Z,21.67
2018-11-05T08:10:16.945Z,22.40
2018-11-05T08:12:45.758Z,22.30
2018-11-05T08:15:17.819Z,22.43
2018-11-05T08:17:47.993Z,23.40
2018-11-05T08:20:17.173Z,23.03
2018-11-05T08:22:46.293Z,21.77
2018-11-05T08:25:16.314Z,22.10
2018-11-05T08:27:45.473Z,20.53
2018-11-05T08:30:19.945Z,22.47
2018-11-05T08:32:48.953Z,20.20
2018-11-05T08:35:18.133Z,19.07
2018-11-05T08:37:47.913Z,18.67
2018-11-05T08:40:25.408Z,19.00
2018-11-05T08:42:54.923Z,18.80
2018-11-05T08:45:25.179Z,19.67
2018-11-05T08:47:53.947Z,20.47
2018-11-05T08:50:23.549Z,23.30
2018-11-05T08:52:52.279Z,23.17
2018-11-05T08:55:23.322Z,23.13
2018-11-05T08:57:52.112Z,20.23
2018-11-05T09:00:26.038Z,19.73
2018-11-05T09:02:55.290Z,19.87
2018-11-05T09:05:24.334Z,19.37
2018-11-05T09:07:53.976Z,21.10
2018-11-05T09:10:22.899Z,21.00
2018-11-05T09:12:51.515Z,22.57
2018-11-05T09:15:21.294Z,21.07
2018-11-05T09:17:50.122Z,21.07
2018-11-05T09:20:19.560Z,22.23
2018-11-05T09:22:49.050Z,21.47
2018-11-05T09:25:18.078Z,21.23
2018-11-05T09:27:46.876Z,21.57
2018-11-05T09:30:17.147Z,21.90
2018-11-05T09:32:46.368Z,20.03
2018-11-05T09:35:15.256Z,21.13
2018-11-05T09:37:44.015Z,21.30
2018-11-05T09:40:15.207Z,21.73
2018-11-05T09:42:44.603Z,20.67
2018-11-05T09:45:15.964Z,21.43
2018-11-05T09:47:45.508Z,21.87
2018-11-05T09:50:14.550Z,21.37
2018-11-05T09:52:43.283Z,22.20
2018-11-05T09:55:12.789Z,23.10
2018-11-05T09:57:42.046Z,24.70
2018-11-05T10:00:15.673Z,26.67
2018-11-05T10:02:49.800Z,25.80
2018-11-05T10:05:18.746Z,27.20
2018-11-05T10:07:47.587Z,27.67
2018-11-05T10:10:17.178Z,27.13
2018-11-05T10:12:45.918Z,26.60
2018-11-05T10:15:15.641Z,27.17
2018-11-05T10:17:44.406Z,26.83
2018-11-05T10:20:15.783Z,26.97
2018-11-05T10:22:45.332Z,26.67
2018-11-05T10:25:14.507Z,27.43
2018-11-05T10:27:43.210Z,26.97
2018-11-05T10:30:18.810Z,28.03
2018-11-05T10:32:47.590Z,27.17
2018-11-05T10:35:16.979Z,26.40
2018-11-05T10:37:45.724Z,26.57
2018-11-05T10:40:16.598Z,26.13
2018-11-05T10:42:46.286Z,27.37
2018-11-05T10:45:16.082Z,26.10
2018-11-05T10:47:44.829Z,25.63
2018-11-05T10:50:14.844Z,27.00
2018-11-05T10:52:51.125Z,26.33
2018-11-05T10:55:20.020Z,26.93
2018-11-05T10:57:48.859Z,26.60
2018-11-05T11:00:25.294Z,26.40
2018-11-05T11:02:59.376Z,27.27
2018-11-05T11:05:29.123Z,25.80
2018-11-05T11:07:58.724Z,26.17
2018-11-05T11:10:28.356Z,24.60
2018-11-05T11:12:57.312Z,26.40
2018-11-05T11:15:26.093Z,24.80
2018-11-05T11:17:55.131Z,26.30
2018-11-05T11:20:23.912Z,26.60
2018-11-05T11:22:58.959Z,25.50
2018-11-05T11:25:27.766Z,24.97
2018-11-05T11:27:56.544Z,24.50
2018-11-05T11:30:25.259Z,24.23
2018-11-05T11:32:54.170Z,23.87
2018-11-05T11:35:22.943Z,24.47
2018-11-05T11:37:51.662Z,24.33
2018-11-05T11:40:21.934Z,23.90
2018-11-05T11:42:50.718Z,23.57
2018-11-05T11:45:20.571Z,22.63
2018-11-05T11:47:49.342Z,22.43
2018-11-05T11:50:18.554Z,23.13
2018-11-05T11:52:47.468Z,23.23
2018-11-05T11:55:17.525Z,22.63
2018-11-05T11:57:46.348Z,21.53
2018-11-05T12:00:19.304Z,21.50
2018-11-05T12:02:48.628Z,22.67
2018-11-05T12:05:17.395Z,22.00
2018-11-05T12:07:46.106Z,22.93
2018-11-05T12:10:20.924Z,22.17
2018-11-05T12:12:49.634Z,22.77
2018-11-05T12:15:19.222Z,21.97
2018-11-05T12:17:49.130Z,21.53
2018-11-05T12:20:19.274Z,21.03
2018-11-05T12:22:48.644Z,21.20
2018-11-05T12:25:17.437Z,21.93
2018-11-05T12:27:46.164Z,22.37
2018-11-05T12:30:18.080Z,20.93
2018-11-05T12:32:47.711Z,21.03
2018-11-05T12:35:16.508Z,21.37
2018-11-05T12:37:46.352Z,21.07
2018-11-05T12:40:16.374Z,21.83
2018-11-05T12:42:46.283Z,21.47
2018-11-05T12:45:15.081Z,21.33
2018-11-05T12:47:43.787Z,21.60
2018-11-05T12:57:16.562Z,18.97
2018-11-05T12:59:45.368Z,19.23
2018-11-05T13:02:14.175Z,19.07
2018-11-05T13:04:42.986Z,19.20
2018-11-05T13:07:11.828Z,20.20
2018-11-05T13:09:40.771Z,18.50
2018-11-05T13:12:09.543Z,18.40
2018-11-05T13:14:38.402Z,16.33
2018-11-05T13:17:07.230Z,15.90
2018-11-05T13:19:36.003Z,17.03
2018-11-05T13:22:05.205Z,17.63
2018-11-05T13:24:33.920Z,16.77
2018-11-05T13:27:02.652Z,16.90
2018-11-05T13:29:31.407Z,16.57
2018-11-05T13:32:00.189Z,16.60
2018-11-05T13:34:28.903Z,16.43
2018-11-05T13:36:57.878Z,16.20
2018-11-05T13:39:26.598Z,16.03
2018-11-05T13:41:55.318Z,16.70
2018-11-05T13:44:24.177Z,14.60
2018-11-05T13:46:53.327Z,14.90
2018-11-05T13:49:22.040Z,15.33
2018-11-05T13:51:50.731Z,15.50
2018-11-05T13:54:19.539Z,15.90
2018-11-05T13:56:48.232Z,15.03
2018-11-05T13:59:16.933Z,14.90
2018-11-05T14:01:45.710Z,15.60
2018-11-05T14:04:14.608Z,16.93
2018-11-05T14:06:43.322Z,15.70
2018-11-05T14:09:12.109Z,17.17
2018-11-05T14:11:40.872Z,16.90
2018-11-05T14:14:09.613Z,16.90
2018-11-05T14:16:38.316Z,17.50
2018-11-05T14:19:07.033Z,18.07
2018-11-05T14:21:35.814Z,16.77
2018-11-05T14:24:04.644Z,18.57
2018-11-05T14:26:33.410Z,16.87
2018-11-05T14:29:02.291Z,17.73
2018-11-05T14:31:31.210Z,17.37
2018-11-05T14:33:59.996Z,16.90
2018-11-05T14:37:31.965Z,16.60
2018-11-05T14:40:00.715Z,16.23
2018-11-05T14:42:29.547Z,17.03
2018-11-05T14:44:58.299Z,16.10
2018-11-05T14:47:27.242Z,18.47
2018-11-05T14:49:56.027Z,16.70
2018-11-05T14:52:25.243Z,17.50
2018-11-05T14:54:54.058Z,17.83
2018-11-05T14:57:22.829Z,17.70
2018-11-05T14:59:51.556Z,18.40
2018-11-05T15:02:25.598Z,16.67
2018-11-05T15:04:54.408Z,18.20
2018-11-05T15:07:23.270Z,18.60
2018-11-05T15:09:52.076Z,18.30
2018-11-05T15:12:20.817Z,18.10
2018-11-05T15:14:49.606Z,17.63
2018-11-05T15:17:18.449Z,18.23
2018-11-05T15:19:47.542Z,18.13
2018-11-05T15:22:15.988Z,17.70
2018-11-05T15:24:44.722Z,18.10
2018-11-05T15:27:13.466Z,17.37
2018-11-05T15:29:42.225Z,18.80
2018-11-05T15:32:11.011Z,17.47
2018-11-05T15:34:39.936Z,18.03
2018-11-05T15:37:08.673Z,18.87
2018-11-05T15:39:37.423Z,18.30
2018-11-05T15:42:06.684Z,18.93
2018-11-05T15:44:35.385Z,18.30
2018-11-05T15:47:04.274Z,19.70
2018-11-05T15:49:33.099Z,19.03
2018-11-05T15:52:02.187Z,18.33
2018-11-05T15:54:30.780Z,18.47
2018-11-05T15:56:59.476Z,18.90
2018-11-05T15:59:28.217Z,19.30
2018-11-05T16:02:01.420Z,18.73
2018-11-05T16:04:30.280Z,17.30
2018-11-05T16:06:59.021Z,15.83
2018-11-05T16:09:34.609Z,17.17
2018-11-05T16:12:03.233Z,16.73
2018-11-05T16:23:08.068Z,20.43
2018-11-05T16:28:27.457Z,20.07
2018-11-05T16:30:56.236Z,19.80
2018-11-05T16:33:25.023Z,17.87
2018-11-05T16:35:53.729Z,19.00
2018-11-05T16:38:22.603Z,17.27
2018-11-05T16:40:51.407Z,15.07
2018-11-05T16:43:20.140Z,16.60
2018-11-05T16:45:49.991Z,17.80
2018-11-05T16:48:18.646Z,16.37
2018-11-05T16:50:47.308Z,17.47
2018-11-05T16:53:16.015Z,17.73
2018-11-05T16:55:44.702Z,18.30
2018-11-05T16:58:13.408Z,18.73
2018-11-05T17:00:42.167Z,18.43
2018-11-05T17:03:10.898Z,16.87
2018-11-05T17:05:39.508Z,19.70
2018-11-05T17:08:08.187Z,19.17
2018-11-05T17:10:36.853Z,19.43
2018-11-05T17:13:06.141Z,16.60
2018-11-05T17:15:34.815Z,15.40
2018-11-05T17:18:03.599Z,17.00
2018-11-05T17:20:32.230Z,17.27
2018-11-05T17:23:00.955Z,17.40
2018-11-05T17:25:29.633Z,17.83
2018-11-05T17:27:58.388Z,17.57
2018-11-05T17:30:27.089Z,20.07
2018-11-05T17:32:55.810Z,18.93
2018-11-05T17:35:48.953Z,17.53
2018-11-05T17:38:17.622Z,16.80
2018-11-05T17:40:46.242Z,17.70
2018-11-05T17:43:14.912Z,17.57
2018-11-05T17:45:43.607Z,19.87
2018-11-05T17:48:12.259Z,18.17
2018-11-05T17:50:40.971Z,16.40
2018-11-05T17:53:09.587Z,16.10
2018-11-05T17:58:33.850Z,16.20
2018-11-05T18:01:02.950Z,15.77
2018-11-05T18:03:32.023Z,14.83
2018-11-05T18:06:02.954Z,15.50
2018-11-05T18:08:31.690Z,16.43
2018-11-05T18:11:00.420Z,14.87
2018-11-05T18:13:29.122Z,15.73
2018-11-05T18:15:57.888Z,18.73
2018-11-05T18:18:26.619Z,18.93
2018-11-05T18:20:55.263Z,17.83
2018-11-05T18:23:23.977Z,15.00
2018-11-05T18:25:52.650Z,13.93
2018-11-05T18:28:21.343Z,14.73
2018-11-05T18:30:50.031Z,13.97
2018-11-05T18:33:18.725Z,13.33
2018-11-05T18:35:47.456Z,12.83
2018-11-05T18:38:16.207Z,11.97
2018-11-05T18:40:44.864Z,15.30
2018-11-05T18:43:13.645Z,15.07
2018-11-05T18:45:42.356Z,14.77
2018-11-05T18:48:11.124Z,15.57
2018-11-05T18:50:39.817Z,15.67
2018-11-05T18:53:08.570Z,15.03
2018-11-05T18:55:37.708Z,16.67
2018-11-05T18:58:06.938Z,16.60
2018-11-05T19:00:35.665Z,16.00
2018-11-05T19:03:04.554Z,16.70
2018-11-05T19:05:33.240Z,16.13
2018-11-05T19:08:01.914Z,16.33
2018-11-05T19:10:30.683Z,16.17
2018-11-05T19:12:59.393Z,18.40
2018-11-05T19:15:28.090Z,18.93
2018-11-05T19:17:56.764Z,20.27
2018-11-05T19:20:25.463Z,18.50
2018-11-05T19:22:54.371Z,20.30
2018-11-05T19:25:22.905Z,19.07
2018-11-05T19:27:51.686Z,19.23
2018-11-05T19:30:23.004Z,17.77
2018-11-05T19:38:16.653Z,20.17
2018-11-05T19:40:45.813Z,18.67
2018-11-05T19:43:14.517Z,19.43
2018-11-05T19:45:43.133Z,19.37
2018-11-05T19:48:11.836Z,20.50
2018-11-05T19:50:40.486Z,21.20
2018-11-05T19:53:09.167Z,22.10
2018-11-05T19:55:37.852Z,24.17
2018-11-05T19:58:06.652Z,23.97
2018-11-05T20:00:35.396Z,24.33
2018-11-05T20:03:04.040Z,22.93
2018-11-05T20:05:32.770Z,22.37
2018-11-05T20:08:01.483Z,24.60
2018-11-05T20:10:30.260Z,24.17
2018-11-05T20:12:58.929Z,23.83
2018-11-05T20:15:28.315Z,23.03
2018-11-05T20:17:57.435Z,22.50
2018-11-05T20:20:26.779Z,21.97
2018-11-05T20:22:55.577Z,21.87
2018-11-05T20:25:24.483Z,21.13
2018-11-05T20:27:53.234Z,18.37
2018-11-05T20:30:23.399Z,18.00
2018-11-05T20:32:53.423Z,17.20
2018-11-05T20:35:21.947Z,16.83
2018-11-05T20:37:50.639Z,17.37
2018-11-05T20:40:20.451Z,16.43
2018-11-05T20:42:50.287Z,17.13
2018-11-05T20:45:19.635Z,15.90
2018-11-05T20:47:48.383Z,16.40
2018-11-05T20:50:17.646Z,16.40
2018-11-05T20:52:46.310Z,18.40
2018-11-05T20:55:16.230Z,17.10
2018-11-05T20:57:44.980Z,16.70
2018-11-05T21:00:15.501Z,17.27
2018-11-05T21:02:44.377Z,18.27
2018-11-05T21:05:13.075Z,18.10
2018-11-05T21:07:42.588Z,18.40
2018-11-05T21:10:12.612Z,19.23
2018-11-05T21:12:42.120Z,19.43
2018-11-05T21:15:20.301Z,20.03
2018-11-05T21:17:49.917Z,20.53
2018-11-05T21:20:18.517Z,20.33
2018-11-05T21:22:47.900Z,18.77
2018-11-05T21:25:16.591Z,19.50
2018-11-05T21:27:45.511Z,19.53
2018-11-05T21:30:16.428Z,19.00
2018-11-05T21:32:45.161Z,17.90
2018-11-05T21:35:15.621Z,18.07
2018-11-05T21:37:44.321Z,20.17
2018-11-05T21:40:14.227Z,23.93
2018-11-05T21:42:42.904Z,27.07
2018-11-05T21:45:12.758Z,27.47
2018-11-05T21:47:42.056Z,28.73
2018-11-05T21:50:12.360Z,30.07
2018-11-05T21:52:41.796Z,34.17
2018-11-05T21:55:10.506Z,29.37
2018-11-05T21:57:41.003Z,26.77
2018-11-05T22:00:13.197Z,24.03
2018-11-05T22:03:45.938Z,25.23
2018-11-05T22:06:14.700Z,22.00
2018-11-05T22:08:44.086Z,23.50
2018-11-05T22:11:13.574Z,23.23
2018-11-05T22:13:43.322Z,23.93
2018-11-05T22:16:12.795Z,22.33
2018-11-05T22:18:42.437Z,23.37
2018-11-05T22:21:11.605Z,20.40
2018-11-05T22:23:40.940Z,20.40
2018-11-05T22:26:10.416Z,20.33
2018-11-05T22:28:39.150Z,21.43
2018-11-05T22:31:07.893Z,20.77
2018-11-05T22:33:36.542Z,19.77
2018-11-05T22:36:05.540Z,19.73
2018-11-05T22:38:34.298Z,19.80
2018-11-05T22:41:02.977Z,18.70
2018-11-05T22:43:31.723Z,20.10
2018-11-05T22:46:00.408Z,22.93
2018-11-05T22:48:29.049Z,21.90
2018-11-05T22:50:57.686Z,23.37
2018-11-05T22:53:26.330Z,22.73
2018-11-05T22:55:54.982Z,22.90
2018-11-05T22:58:23.668Z,20.80
2018-11-05T23:00:57.702Z,19.37
2018-11-05T23:03:28.271Z,22.50
2018-11-05T23:05:57.457Z,19.77
2018-11-05T23:08:26.448Z,22.10
2018-11-05T23:10:55.127Z,23.03
2018-11-05T23:13:23.795Z,22.10
2018-11-05T23:15:52.426Z,21.87
2018-11-05T23:18:21.110Z,19.43
2018-11-05T23:20:49.733Z,18.30
2018-11-05T23:23:18.366Z,17.67
2018-11-05T23:25:47.053Z,15.47
2018-11-05T23:28:15.690Z,17.43
2018-11-05T23:30:44.416Z,16.67
2018-11-05T23:33:13.120Z,17.20
2018-11-05T23:35:41.736Z,17.10
2018-11-05T23:38:10.439Z,17.10
2018-11-05T23:40:39.102Z,18.23
2018-11-05T23:43:07.894Z,17.47
2018-11-05T23:45:36.565Z,17.93
2018-11-05T23:48:05.377Z,17.10
2018-11-05T23:50:34.079Z,16.33
2018-11-05T23:53:02.746Z,17.27
2018-11-05T23:55:31.436Z,16.77
2018-11-05T23:58:00.137Z,16.90
